createdAt,value
2022-07-28T00:00:02.384Z,3.03
2022-07-28T00:02:29.485Z,3.47
2022-07-28T00:04:56.358Z,3.50
2022-07-28T00:07:23.119Z,3.50
2022-07-28T00:09:50.446Z,4.45
2022-07-28T00:12:17.404Z,3.45
2022-07-28T00:14:44.743Z,3.60
2022-07-28T00:17:11.592Z,3.63
2022-07-28T00:19:38.390Z,3.67
2022-07-28T00:22:06.350Z,3.35
2022-07-28T00:24:33.518Z,4.25
2022-07-28T00:27:00.537Z,3.95
2022-07-28T00:29:42.618Z,4.53
2022-07-28T00:32:14.607Z,4.00
2022-07-28T00:34:41.422Z,3.97
2022-07-28T00:37:09.422Z,3.97
2022-07-28T00:39:42.074Z,3.75
2022-07-28T00:42:09.137Z,3.78
2022-07-28T00:44:36.028Z,4.18
2022-07-28T00:47:02.975Z,3.28
2022-07-28T00:49:29.878Z,3.50
2022-07-28T00:51:57.246Z,3.65
2022-07-28T00:54:24.111Z,4.13
2022-07-28T00:56:51.097Z,4.32
2022-07-28T00:59:17.886Z,3.80
2022-07-28T01:01:44.940Z,3.55
2022-07-28T01:04:12.160Z,3.65
2022-07-28T01:07:06.494Z,3.50
2022-07-28T01:09:48.059Z,3.50
2022-07-28T01:12:42.252Z,4.00
2022-07-28T01:15:09.023Z,4.47
2022-07-28T01:18:02.817Z,4.00
2022-07-28T01:20:49.988Z,3.92
2022-07-28T01:23:51.740Z,4.18
2022-07-28T01:26:39.374Z,4.75
2022-07-28T01:29:22.692Z,4.60
2022-07-28T01:32:07.155Z,4.60
2022-07-28T01:34:41.709Z,4.10
2022-07-28T01:37:17.164Z,3.85
2022-07-28T01:39:45.968Z,4.10
2022-07-28T01:42:13.873Z,3.83
2022-07-28T01:44:48.759Z,3.90
2022-07-28T01:47:16.858Z,4.10
2022-07-28T01:49:46.155Z,3.80
2022-07-28T01:52:14.347Z,3.55
2022-07-28T01:54:43.560Z,3.75
2022-07-28T01:57:14.666Z,3.33
2022-07-28T01:59:42.879Z,3.28
2022-07-28T02:02:11.194Z,3.67
2022-07-28T02:04:40.707Z,3.33
2022-07-28T02:07:10.251Z,3.50
2022-07-28T02:09:38.135Z,3.33
2022-07-28T02:12:06.211Z,3.35
2022-07-28T02:14:36.372Z,3.00
2022-07-28T02:17:08.824Z,4.03
2022-07-28T02:19:36.915Z,3.67
2022-07-28T02:22:05.077Z,3.70
2022-07-28T02:24:33.821Z,3.92
2022-07-28T02:27:19.410Z,3.58
2022-07-28T02:29:51.659Z,3.90
2022-07-28T02:32:53.821Z,3.92
2022-07-28T02:35:56.724Z,3.70
2022-07-28T02:38:35.193Z,3.75
2022-07-28T02:41:12.259Z,3.65
2022-07-28T02:43:49.170Z,3.08
2022-07-28T02:46:23.758Z,3.33
2022-07-28T02:48:56.610Z,3.05
2022-07-28T02:51:27.322Z,3.28
2022-07-28T02:53:55.473Z,3.42
2022-07-28T02:56:23.414Z,3.25
2022-07-28T02:58:51.938Z,3.53
2022-07-28T03:01:19.771Z,3.05
2022-07-28T03:03:48.953Z,2.90
2022-07-28T03:06:17.565Z,2.83
2022-07-28T03:08:44.673Z,2.60
2022-07-28T03:11:13.717Z,2.42
2022-07-28T03:13:40.600Z,2.63
2022-07-28T03:16:07.839Z,2.42
2022-07-28T03:18:35.032Z,3.40
2022-07-28T03:21:01.924Z,2.97
2022-07-28T03:23:43.847Z,2.95
2022-07-28T03:26:17.404Z,2.45
2022-07-28T03:28:46.206Z,2.60
2022-07-28T03:31:15.227Z,2.67
2022-07-28T03:33:42.335Z,2.00
2022-07-28T03:36:14.864Z,1.83
2022-07-28T03:38:56.865Z,1.95
2022-07-28T03:41:26.581Z,2.20
2022-07-28T03:43:54.645Z,1.98
2022-07-28T03:46:21.723Z,2.10
2022-07-28T03:48:48.776Z,2.03
2022-07-28T03:51:15.592Z,2.40
2022-07-28T03:53:43.099Z,2.05
2022-07-28T03:56:09.883Z,2.45
2022-07-28T03:58:36.658Z,2.25
2022-07-28T04:01:03.633Z,1.60
2022-07-28T04:03:43.000Z,1.63
2022-07-28T04:06:15.425Z,1.30
2022-07-28T04:08:42.905Z,1.52
2022-07-28T04:11:09.714Z,1.30
2022-07-28T04:13:37.268Z,1.55
2022-07-28T04:16:05.498Z,2.15
2022-07-28T04:18:32.611Z,2.95
2022-07-28T04:20:59.592Z,2.10
2022-07-28T04:23:26.503Z,1.70
2022-07-28T04:25:53.353Z,1.60
2022-07-28T04:28:20.247Z,1.67
2022-07-28T04:30:47.047Z,1.40
2022-07-28T04:33:13.985Z,1.38
2022-07-28T04:35:40.943Z,1.67
2022-07-28T04:38:08.427Z,1.58
2022-07-28T04:40:35.338Z,1.40
2022-07-28T04:43:03.921Z,1.40
2022-07-28T04:45:31.056Z,1.63
2022-07-28T04:47:57.970Z,1.40
2022-07-28T04:50:25.111Z,1.65
2022-07-28T04:52:51.905Z,1.50
2022-07-28T04:55:18.757Z,1.52
2022-07-28T04:57:46.294Z,1.55
2022-07-28T05:00:14.357Z,1.85
2022-07-28T05:02:42.404Z,1.60
2022-07-28T05:05:10.532Z,1.50
2022-07-28T05:07:38.599Z,1.40
2022-07-28T05:10:07.737Z,2.05
2022-07-28T05:12:35.030Z,1.50
2022-07-28T05:15:05.303Z,1.27
2022-07-28T05:17:32.087Z,1.77
2022-07-28T05:19:58.939Z,1.50
2022-07-28T05:22:26.858Z,1.75
2022-07-28T05:24:53.633Z,1.40
2022-07-28T05:27:20.535Z,1.33
2022-07-28T05:29:48.080Z,1.60
2022-07-28T05:32:17.099Z,1.23
2022-07-28T05:34:45.223Z,1.58
2022-07-28T05:37:12.296Z,1.35
2022-07-28T05:39:39.521Z,1.45
2022-07-28T05:42:06.616Z,1.70
2022-07-28T05:44:37.919Z,1.23
2022-07-28T05:47:06.256Z,1.45
2022-07-28T05:49:33.888Z,1.42
2022-07-28T05:52:00.782Z,1.65
2022-07-28T05:54:28.235Z,1.50
2022-07-28T05:56:55.098Z,1.75
2022-07-28T05:59:21.873Z,1.50
2022-07-28T06:01:48.655Z,1.30
2022-07-28T06:04:31.288Z,1.20
2022-07-28T06:06:58.358Z,1.35
2022-07-28T06:09:25.186Z,1.25
2022-07-28T06:11:51.983Z,1.38
2022-07-28T06:14:19.340Z,1.60
2022-07-28T06:16:51.105Z,1.17
2022-07-28T06:19:18.908Z,1.30
2022-07-28T06:21:45.768Z,1.17
2022-07-28T06:24:12.930Z,0.93
2022-07-28T06:26:44.237Z,1.30
2022-07-28T06:29:12.490Z,1.33
2022-07-28T06:31:39.537Z,1.10
2022-07-28T06:34:06.648Z,1.52
2022-07-28T06:36:33.562Z,1.15
2022-07-28T06:39:00.365Z,1.08
2022-07-28T06:41:27.825Z,1.15
2022-07-28T06:43:54.721Z,1.40
2022-07-28T06:46:22.243Z,1.23
2022-07-28T06:48:49.154Z,2.03
2022-07-28T06:51:19.173Z,1.35
2022-07-28T06:53:48.449Z,0.93
2022-07-28T06:56:16.084Z,2.28
2022-07-28T06:58:45.465Z,1.70
2022-07-28T07:01:15.003Z,2.22
2022-07-28T07:03:42.658Z,2.05
2022-07-28T07:06:11.012Z,1.90
2022-07-28T07:08:38.671Z,2.75
2022-07-28T07:11:05.627Z,2.42
2022-07-28T07:13:33.193Z,3.20
2022-07-28T07:16:00.389Z,3.38
2022-07-28T07:18:27.420Z,2.92
2022-07-28T07:20:56.495Z,2.15
2022-07-28T07:23:23.303Z,2.40
2022-07-28T07:25:50.087Z,2.35
2022-07-28T07:28:16.906Z,2.63
2022-07-28T07:30:43.948Z,2.15
2022-07-28T07:33:10.920Z,2.20
2022-07-28T07:35:38.435Z,1.85
2022-07-28T07:38:05.624Z,2.10
2022-07-28T07:40:32.519Z,2.00
2022-07-28T07:42:59.470Z,2.00
2022-07-28T07:45:26.569Z,1.80
2022-07-28T07:47:53.504Z,1.98
2022-07-28T07:50:20.342Z,1.83
2022-07-28T07:52:49.839Z,1.90
2022-07-28T07:55:17.165Z,1.90
2022-07-28T07:57:44.463Z,1.52
2022-07-28T08:00:28.500Z,1.70
2022-07-28T08:02:57.092Z,2.33
2022-07-28T08:05:35.308Z,1.70
2022-07-28T08:08:03.877Z,2.00
2022-07-28T08:10:30.827Z,1.92
2022-07-28T08:12:57.623Z,1.75
2022-07-28T08:15:24.564Z,2.28
2022-07-28T08:17:51.348Z,2.22
2022-07-28T08:20:18.187Z,2.75
2022-07-28T08:22:52.468Z,2.38
2022-07-28T08:25:19.838Z,2.23
2022-07-28T08:27:47.208Z,2.60
2022-07-28T08:30:22.379Z,2.70
2022-07-28T08:32:56.843Z,2.85
2022-07-28T08:35:39.343Z,2.58
2022-07-28T08:38:06.413Z,2.75
2022-07-28T08:40:35.222Z,2.33
2022-07-28T08:43:04.782Z,2.65
2022-07-28T08:45:33.366Z,2.10
2022-07-28T08:48:08.756Z,1.85
2022-07-28T08:50:38.000Z,2.60
2022-07-28T08:53:06.409Z,2.38
2022-07-28T08:55:35.794Z,2.15
2022-07-28T08:58:03.885Z,2.90
2022-07-28T09:00:30.928Z,2.00
2022-07-28T09:02:58.416Z,2.22
2022-07-28T09:05:25.618Z,2.63
2022-07-28T09:07:55.377Z,1.90
2022-07-28T09:10:23.322Z,1.10
2022-07-28T09:12:50.254Z,2.22
2022-07-28T09:15:17.101Z,2.20
2022-07-28T09:17:43.936Z,2.58
2022-07-28T09:20:12.000Z,2.30
2022-07-28T09:23:01.731Z,2.55
2022-07-28T09:25:30.016Z,2.20
2022-07-28T09:28:05.212Z,2.25
2022-07-28T09:30:34.379Z,2.67
2022-07-28T09:33:42.842Z,2.33
2022-07-28T09:36:00.165Z,1.90
2022-07-28T09:38:40.937Z,2.28
2022-07-28T09:41:07.881Z,2.13
2022-07-28T09:43:43.467Z,1.60
2022-07-28T09:46:16.569Z,2.25
2022-07-28T09:48:57.172Z,1.75
2022-07-28T09:51:33.354Z,1.70
2022-07-28T09:54:14.376Z,1.55
2022-07-28T09:56:44.220Z,1.80
2022-07-28T09:59:12.806Z,2.25
2022-07-28T10:02:01.675Z,1.90
2022-07-28T10:04:34.477Z,1.40
2022-07-28T10:07:03.188Z,1.90
2022-07-28T10:09:29.979Z,2.22
2022-07-28T10:12:22.978Z,1.67
2022-07-28T10:14:51.974Z,1.63
2022-07-28T10:17:32.211Z,1.80
2022-07-28T10:20:01.584Z,1.67
2022-07-28T10:22:33.313Z,1.95
2022-07-28T10:25:10.629Z,1.73
2022-07-28T10:27:40.412Z,2.10
2022-07-28T10:30:07.894Z,2.10
2022-07-28T10:32:42.099Z,1.90
2022-07-28T10:35:17.960Z,1.55
2022-07-28T10:37:54.368Z,1.60
2022-07-28T10:40:26.670Z,2.20
2022-07-28T10:42:55.102Z,2.72
2022-07-28T10:45:22.202Z,2.13
2022-07-28T10:47:55.060Z,1.88
2022-07-28T10:50:22.739Z,1.88
2022-07-28T10:52:52.511Z,1.92
2022-07-28T10:55:40.752Z,2.10
2022-07-28T10:58:16.373Z,3.42
2022-07-28T11:00:56.103Z,4.28
2022-07-28T11:03:45.543Z,2.70
2022-07-28T11:06:39.836Z,2.05
2022-07-28T11:09:18.712Z,2.10
2022-07-28T11:11:45.548Z,2.10
2022-07-28T11:14:29.601Z,2.08
2022-07-28T11:17:05.666Z,2.10
2022-07-28T11:22:34.322Z,2.17
2022-07-28T11:25:20.925Z,2.10
2022-07-28T11:27:51.527Z,2.33
2022-07-28T11:30:28.823Z,2.25
2022-07-28T11:32:56.644Z,2.33
2022-07-28T11:35:53.526Z,1.90
2022-07-28T11:38:20.785Z,2.20
2022-07-28T11:40:50.214Z,3.60
2022-07-28T11:43:32.018Z,4.45
2022-07-28T11:46:10.123Z,2.53
2022-07-28T11:48:44.751Z,2.80
2022-07-28T11:51:13.414Z,2.85
2022-07-28T11:53:49.431Z,2.78
2022-07-28T11:56:23.859Z,2.63
2022-07-28T11:59:18.046Z,2.60
2022-07-28T12:01:53.284Z,2.83
2022-07-28T12:04:20.680Z,3.33
2022-07-28T12:06:52.242Z,2.75
2022-07-28T12:09:25.642Z,2.53
2022-07-28T12:11:55.370Z,2.72
2022-07-28T12:14:23.074Z,2.60
2022-07-28T12:16:51.216Z,2.70
2022-07-28T12:19:20.240Z,2.90
2022-07-28T12:21:55.438Z,3.38
2022-07-28T12:24:44.920Z,3.25
2022-07-28T12:27:14.720Z,2.97
2022-07-28T12:29:42.182Z,3.08
2022-07-28T12:32:10.067Z,3.58
2022-07-28T12:34:39.954Z,3.20
2022-07-28T12:37:12.565Z,2.90
2022-07-28T12:39:42.646Z,3.67
2022-07-28T12:42:12.024Z,3.65
2022-07-28T12:44:41.426Z,4.25
2022-07-28T12:47:12.050Z,3.40
2022-07-28T12:49:42.173Z,3.83
2022-07-28T12:52:23.534Z,3.40
2022-07-28T12:54:54.410Z,3.10
2022-07-28T12:57:52.800Z,3.15
2022-07-28T13:00:26.105Z,3.08
2022-07-28T13:02:56.091Z,2.63
2022-07-28T13:05:53.605Z,3.05
2022-07-28T13:08:21.462Z,2.45
2022-07-28T13:10:49.424Z,2.45
2022-07-28T13:13:19.656Z,2.80
2022-07-28T13:16:15.375Z,3.28
2022-07-28T13:18:44.539Z,3.08
2022-07-28T13:21:11.850Z,3.17
2022-07-28T13:23:38.897Z,2.28
2022-07-28T13:26:07.362Z,2.25
2022-07-28T13:28:35.043Z,2.08
2022-07-28T13:31:01.993Z,2.13
2022-07-28T13:33:28.911Z,2.25
2022-07-28T13:35:55.874Z,2.42
2022-07-28T13:38:23.253Z,2.30
2022-07-28T13:40:50.001Z,1.92
2022-07-28T13:43:16.792Z,2.10
2022-07-28T13:45:43.701Z,1.88
2022-07-28T13:48:10.524Z,2.28
2022-07-28T13:50:37.427Z,1.90
2022-07-28T13:53:04.441Z,3.05
2022-07-28T13:55:31.321Z,2.00
2022-07-28T13:57:58.155Z,1.92
2022-07-28T14:00:26.127Z,1.70
2022-07-28T14:02:53.742Z,2.05
2022-07-28T14:05:21.120Z,2.00
2022-07-28T14:07:49.320Z,2.03
2022-07-28T14:10:18.057Z,2.08
2022-07-28T14:12:46.505Z,1.70
2022-07-28T14:15:13.779Z,1.45
2022-07-28T14:17:43.306Z,1.02
2022-07-28T14:20:13.361Z,1.98
2022-07-28T14:22:40.401Z,1.65
2022-07-28T14:25:07.629Z,2.08
2022-07-28T14:27:34.652Z,1.27
2022-07-28T14:30:03.866Z,1.90
2022-07-28T14:32:31.569Z,1.90
2022-07-28T14:34:58.432Z,1.88
2022-07-28T14:37:25.510Z,1.60
2022-07-28T14:39:52.378Z,1.92
2022-07-28T14:42:19.373Z,1.70
2022-07-28T14:44:46.231Z,1.63
2022-07-28T14:47:13.131Z,2.22
2022-07-28T14:49:57.251Z,1.33
2022-07-28T14:52:28.385Z,1.30
2022-07-28T14:54:55.439Z,1.42
2022-07-28T14:57:48.265Z,1.23
2022-07-28T15:00:11.187Z,1.17
2022-07-28T15:02:41.207Z,1.40
2022-07-28T15:05:09.097Z,1.60
2022-07-28T15:07:36.368Z,1.33
2022-07-28T15:10:05.075Z,1.50
2022-07-28T15:12:32.136Z,1.40
2022-07-28T15:14:59.078Z,1.17
2022-07-28T15:17:25.858Z,1.23
2022-07-28T15:19:52.687Z,1.30
2022-07-28T15:22:19.605Z,1.60
2022-07-28T15:24:46.444Z,1.10
2022-07-28T15:27:13.544Z,1.25
2022-07-28T15:29:42.793Z,0.90
2022-07-28T15:32:10.805Z,1.15
2022-07-28T15:34:40.065Z,1.73
2022-07-28T15:37:07.014Z,1.20
2022-07-28T15:39:34.152Z,1.58
2022-07-28T15:42:01.368Z,1.33
2022-07-28T15:44:29.921Z,1.05
2022-07-28T15:46:56.998Z,1.40
2022-07-28T15:49:24.163Z,1.40
2022-07-28T15:51:51.080Z,1.23
2022-07-28T15:54:18.761Z,1.30
2022-07-28T15:56:45.969Z,1.30
2022-07-28T15:59:12.773Z,1.20
2022-07-28T16:01:44.990Z,1.33
2022-07-28T16:04:12.979Z,1.17
2022-07-28T16:06:58.976Z,1.20
2022-07-28T16:09:45.865Z,1.08
2022-07-28T16:12:14.246Z,1.30
2022-07-28T16:14:42.362Z,1.40
2022-07-28T16:17:09.925Z,1.20
2022-07-28T16:19:49.106Z,1.30
2022-07-28T16:22:18.315Z,1.25
2022-07-28T16:24:45.780Z,1.73
2022-07-28T16:27:12.767Z,1.40
2022-07-28T16:29:40.100Z,1.23
2022-07-28T16:32:07.049Z,1.50
2022-07-28T16:34:34.403Z,1.48
2022-07-28T16:37:01.765Z,1.75
2022-07-28T16:39:33.596Z,1.15
2022-07-28T16:42:00.357Z,1.20
2022-07-28T16:44:28.928Z,1.70
2022-07-28T16:46:56.349Z,1.30
2022-07-28T16:49:23.868Z,1.50
2022-07-28T16:51:50.866Z,2.13
2022-07-28T16:54:18.097Z,3.28
2022-07-28T16:56:45.877Z,2.05
2022-07-28T16:59:13.164Z,1.67
2022-07-28T17:01:45.491Z,1.98
2022-07-28T17:04:15.034Z,1.15
2022-07-28T17:06:42.134Z,2.13
2022-07-28T17:09:08.909Z,1.92
2022-07-28T17:11:35.828Z,1.65
2022-07-28T17:14:03.246Z,1.98
2022-07-28T17:16:30.489Z,1.70
2022-07-28T17:18:57.811Z,1.67
2022-07-28T17:21:25.757Z,1.92
2022-07-28T17:23:53.352Z,2.42
2022-07-28T17:29:07.159Z,3.40
2022-07-28T17:31:34.207Z,1.70
2022-07-28T17:34:01.173Z,1.80
2022-07-28T17:36:29.298Z,2.72
2022-07-28T17:38:56.137Z,2.70
2022-07-28T17:41:23.007Z,2.70
2022-07-28T17:43:49.752Z,1.90
2022-07-28T17:46:17.524Z,2.45
2022-07-28T17:48:48.462Z,1.65
2022-07-28T17:51:15.548Z,2.00
2022-07-28T17:53:43.740Z,1.67
2022-07-28T17:56:12.837Z,1.98
2022-07-28T17:58:40.801Z,1.90
2022-07-28T18:01:13.811Z,1.95
2022-07-28T18:03:57.072Z,2.75
2022-07-28T18:06:28.393Z,2.00
2022-07-28T18:08:55.280Z,2.40
2022-07-28T18:11:22.080Z,2.22
2022-07-28T18:14:04.786Z,1.80
2022-07-28T18:16:34.165Z,1.90
2022-07-28T18:19:02.064Z,1.98
2022-07-28T18:21:28.863Z,2.30
2022-07-28T18:23:55.657Z,2.20
2022-07-28T18:26:22.639Z,2.22
2022-07-28T18:28:49.689Z,2.13
2022-07-28T18:31:16.634Z,2.53
2022-07-28T18:33:43.543Z,1.83
2022-07-28T18:36:10.310Z,2.63
2022-07-28T18:38:37.207Z,1.95
2022-07-28T18:41:04.094Z,2.47
2022-07-28T18:43:31.422Z,2.17
2022-07-28T18:45:58.447Z,2.47
2022-07-28T18:48:28.228Z,1.63
2022-07-28T18:50:55.025Z,1.48
2022-07-28T18:53:22.451Z,1.60
2022-07-28T18:55:49.234Z,1.88
2022-07-28T18:58:15.981Z,1.60
2022-07-28T19:00:42.875Z,1.70
2022-07-28T19:03:09.768Z,1.30
2022-07-28T19:05:37.457Z,1.77
2022-07-28T19:08:05.535Z,1.63
2022-07-28T19:10:32.748Z,1.60
2022-07-28T19:12:59.973Z,1.60
2022-07-28T19:15:27.014Z,1.52
2022-07-28T19:18:11.483Z,1.40
2022-07-28T19:20:43.980Z,1.70
2022-07-28T19:23:11.051Z,1.70
2022-07-28T19:25:39.433Z,1.52
2022-07-28T19:28:06.877Z,1.40
2022-07-28T19:30:34.480Z,1.60
2022-07-28T19:33:02.288Z,1.48
2022-07-28T19:35:29.062Z,2.10
2022-07-28T19:37:59.685Z,1.70
2022-07-28T19:40:29.200Z,1.10
2022-07-28T19:42:57.490Z,1.27
2022-07-28T19:45:25.165Z,1.52
2022-07-28T19:47:52.104Z,1.67
2022-07-28T19:50:18.953Z,1.70
2022-07-28T19:52:46.127Z,1.48
2022-07-28T19:55:17.445Z,1.30
2022-07-28T19:57:47.525Z,1.48
2022-07-28T20:00:17.419Z,1.80
2022-07-28T20:02:45.883Z,1.50
2022-07-28T20:05:13.319Z,1.60
2022-07-28T20:07:40.207Z,1.63
2022-07-28T20:10:07.221Z,1.45
2022-07-28T20:12:36.802Z,1.35
2022-07-28T20:15:07.441Z,1.60
2022-07-28T20:17:39.368Z,1.40
2022-07-28T20:20:11.761Z,1.20
2022-07-28T20:22:39.443Z,1.25
2022-07-28T20:25:09.255Z,1.40
2022-07-28T20:27:40.397Z,1.60
2022-07-28T20:30:09.776Z,1.30
2022-07-28T20:32:37.586Z,1.40
2022-07-28T20:35:05.729Z,1.45
2022-07-28T20:37:36.898Z,1.30
2022-07-28T20:40:05.839Z,1.70
2022-07-28T20:42:32.725Z,1.55
2022-07-28T20:44:59.556Z,1.55
2022-07-28T20:47:27.979Z,1.42
2022-07-28T20:49:55.296Z,1.25
2022-07-28T20:52:22.339Z,1.48
2022-07-28T20:54:54.044Z,1.60
2022-07-28T20:57:22.172Z,1.27
2022-07-28T20:59:51.184Z,1.30
2022-07-28T21:02:19.676Z,1.30
2022-07-28T21:04:48.225Z,1.65
2022-07-28T21:07:18.158Z,1.17
2022-07-28T21:10:06.675Z,1.73
2022-07-28T21:12:34.554Z,1.30
2022-07-28T21:15:01.439Z,1.70
2022-07-28T21:17:28.311Z,1.20
2022-07-28T21:19:55.695Z,1.50
2022-07-28T21:22:22.800Z,1.10
2022-07-28T21:24:54.747Z,1.30
2022-07-28T21:27:22.762Z,1.52
2022-07-28T21:32:17.606Z,1.20
2022-07-28T21:34:44.395Z,1.38
2022-07-28T21:37:13.113Z,1.48
2022-07-28T21:39:40.347Z,1.00
2022-07-28T21:42:08.772Z,1.40
2022-07-28T21:44:36.346Z,1.70
2022-07-28T21:47:03.815Z,1.60
2022-07-28T21:49:31.397Z,1.40
2022-07-28T21:51:58.620Z,1.50
2022-07-28T21:54:25.470Z,1.83
2022-07-28T21:56:52.306Z,1.80
2022-07-28T21:59:19.113Z,1.42
2022-07-28T22:01:46.168Z,1.83
2022-07-28T22:04:13.246Z,1.98
2022-07-28T22:06:40.485Z,1.80
2022-07-28T22:09:07.308Z,1.50
2022-07-28T22:11:34.087Z,1.80
2022-07-28T22:14:01.685Z,1.30
2022-07-28T22:16:28.594Z,1.75
2022-07-28T22:18:55.395Z,1.80
2022-07-28T22:21:22.214Z,2.15
2022-07-28T22:23:48.966Z,2.05
2022-07-28T22:26:15.734Z,2.00
2022-07-28T22:28:42.579Z,1.60
2022-07-28T22:31:10.207Z,1.77
2022-07-28T22:33:38.498Z,1.88
2022-07-28T22:36:09.251Z,1.88
2022-07-28T22:38:36.289Z,2.20
2022-07-28T22:41:03.513Z,1.80
2022-07-28T22:43:33.417Z,2.58
2022-07-28T22:46:00.581Z,2.10
2022-07-28T22:48:27.659Z,2.42
2022-07-28T22:50:54.535Z,2.13
2022-07-28T22:53:21.510Z,2.00
2022-07-28T22:55:50.142Z,2.35
2022-07-28T22:58:16.976Z,2.17
2022-07-28T23:00:43.910Z,1.73
2022-07-28T23:03:13.405Z,1.70
2022-07-28T23:05:42.783Z,1.85
2022-07-28T23:08:09.632Z,1.45
2022-07-28T23:10:37.530Z,1.65
2022-07-28T23:13:04.451Z,1.40
2022-07-28T23:15:39.687Z,1.20
2022-07-28T23:18:07.634Z,1.80
2022-07-28T23:20:34.427Z,1.35
2022-07-28T23:23:01.346Z,1.10
2022-07-28T23:25:28.597Z,0.95
2022-07-28T23:27:55.411Z,1.30
2022-07-28T23:30:22.177Z,1.23
2022-07-28T23:32:52.576Z,1.23
2022-07-28T23:35:19.695Z,1.33
2022-07-28T23:37:46.549Z,1.33
2022-07-28T23:40:13.885Z,1.88
2022-07-28T23:42:40.726Z,1.38
2022-07-28T23:45:07.966Z,1.08
2022-07-28T23:47:35.229Z,1.45
2022-07-28T23:50:05.619Z,2.83
2022-07-28T23:52:32.501Z,1.92
2022-07-28T23:54:59.388Z,2.58
2022-07-28T23:57:30.951Z,2.88
2022-07-28T23:59:58.754Z,2.00
